createdAt,value
2022-12-05T00:00:15.985Z,97949.38
2022-12-05T00:02:47.763Z,97954.41
2022-12-05T00:05:18.749Z,97955.38
2022-12-05T00:07:49.117Z,97959.59
2022-12-05T00:10:18.687Z,97962.97
2022-12-05T00:12:47.197Z,97961.22
2022-12-05T00:15:16.631Z,97967.88
2022-12-05T00:17:47.519Z,97970.28
2022-12-05T00:20:17.971Z,97972.88
2022-12-05T00:22:48.088Z,97970.44
2022-12-05T00:25:18.258Z,97973.16
2022-12-05T00:27:48.147Z,97972.31
2022-12-05T00:30:17.219Z,97973.16
2022-12-05T00:32:49.246Z,97981.19
2022-12-05T00:35:18.481Z,97980.50
2022-12-05T00:37:47.277Z,97985.13
2022-12-05T00:40:16.951Z,97977.22
2022-12-05T00:42:52.165Z,97979.69
2022-12-05T00:45:21.301Z,97976.00
2022-12-05T00:47:52.691Z,97973.97
2022-12-05T00:50:22.799Z,97975.59
2022-12-05T00:52:53.286Z,97972.19
2022-12-05T00:55:22.142Z,97974.78
2022-12-05T00:57:51.899Z,97971.53
2022-12-05T01:00:22.815Z,97970.84
2022-12-05T01:02:54.885Z,97968.28
2022-12-05T01:05:24.266Z,97975.19
2022-12-05T01:07:54.249Z,97988.63
2022-12-05T01:10:24.593Z,97987.81
2022-12-05T01:12:53.514Z,97984.84
2022-12-05T01:15:23.099Z,97985.69
2022-12-05T01:17:53.473Z,97984.69
2022-12-05T01:20:23.371Z,97983.75
2022-12-05T01:22:53.838Z,97987.03
2022-12-05T01:25:23.794Z,97987.81
2022-12-05T01:27:53.707Z,97990.84
2022-12-05T01:30:22.267Z,97992.72
2022-12-05T01:32:53.062Z,97997.88
2022-12-05T01:35:22.062Z,98001.00
2022-12-05T01:37:51.307Z,97997.34
2022-12-05T01:40:20.993Z,98000.88
2022-12-05T01:42:50.334Z,98004.41
2022-12-05T01:45:27.953Z,98000.19
2022-12-05T01:47:59.917Z,98000.88
2022-12-05T01:50:29.426Z,98009.56
2022-12-05T01:52:59.420Z,98004.03
2022-12-05T01:55:29.137Z,98010.13
2022-12-05T01:57:59.984Z,98002.38
2022-12-05T02:00:30.214Z,98022.88
2022-12-05T02:03:05.719Z,98015.66
2022-12-05T02:05:37.641Z,98012.97
2022-12-05T02:08:11.871Z,98012.69
2022-12-05T02:10:45.664Z,98010.91
2022-12-05T02:13:38.510Z,98004.56
2022-12-05T02:16:20.567Z,98006.31
2022-12-05T02:19:13.052Z,98004.69
2022-12-05T02:22:38.628Z,98004.28
2022-12-05T02:25:59.434Z,98007.94
2022-12-05T02:28:57.872Z,98007.81
2022-12-05T02:31:38.274Z,98009.28
2022-12-05T02:34:17.769Z,98001.53
2022-12-05T02:36:57.074Z,98003.31
2022-12-05T02:39:37.512Z,98008.63
2022-12-05T02:42:18.268Z,98004.41
2022-12-05T02:44:53.336Z,98004.41
2022-12-05T02:47:31.579Z,98008.63
2022-12-05T02:50:01.377Z,97999.66
2022-12-05T02:52:32.971Z,97995.97
2022-12-05T02:55:04.628Z,97989.88
2022-12-05T02:57:35.785Z,98000.31
2022-12-05T03:00:06.733Z,97992.84
2022-12-05T03:02:40.758Z,97998.00
2022-12-05T03:05:22.469Z,98004.66
2022-12-05T03:07:57.473Z,98007.41
2022-12-05T03:10:33.105Z,98001.41
2022-12-05T03:13:11.703Z,98004.81
2022-12-05T03:15:48.867Z,98004.13
2022-12-05T03:18:26.059Z,98001.81
2022-12-05T03:21:03.324Z,97990.41
2022-12-05T03:23:38.866Z,97990.94
2022-12-05T03:26:20.639Z,97995.16
2022-12-05T03:29:06.685Z,97988.88
2022-12-05T03:31:46.134Z,97997.59
2022-12-05T03:34:25.377Z,98004.81
2022-12-05T03:36:55.873Z,97988.09
2022-12-05T03:39:30.913Z,97988.59
2022-12-05T03:42:11.155Z,98007.50
2022-12-05T03:44:51.785Z,98017.16
2022-12-05T03:47:30.350Z,98031.81
2022-12-05T03:50:07.763Z,98024.91
2022-12-05T03:53:18.051Z,98026.66
2022-12-05T03:55:40.091Z,98032.66
2022-12-05T03:58:18.420Z,98031.69
2022-12-05T04:00:54.366Z,98047.19
2022-12-05T04:03:39.096Z,98050.44
2022-12-05T04:06:19.295Z,98046.75
2022-12-05T04:08:55.142Z,98051.91
2022-12-05T04:11:29.392Z,98045.81
2022-12-05T04:14:06.290Z,98054.38
2022-12-05T04:17:02.815Z,98066.59
2022-12-05T04:20:00.307Z,98068.22
2022-12-05T04:22:31.742Z,98079.25
2022-12-05T04:25:21.090Z,98075.84
2022-12-05T04:28:00.485Z,98080.19
2022-12-05T04:30:40.850Z,98079.91
2022-12-05T04:33:18.419Z,98077.34
2022-12-05T04:35:56.113Z,98091.06
2022-12-05T04:38:33.895Z,98089.31
2022-12-05T04:41:07.588Z,98096.22
2022-12-05T04:43:42.176Z,98098.66
2022-12-05T04:46:15.721Z,98095.13
2022-12-05T04:48:50.976Z,98095.81
2022-12-05T04:51:24.602Z,98094.03
2022-12-05T04:54:00.441Z,98089.69
2022-12-05T04:56:34.418Z,98090.50
2022-12-05T04:59:02.889Z,98079.34
2022-12-05T05:01:42.936Z,98087.94
2022-12-05T05:04:18.703Z,98076.50
2022-12-05T05:06:47.683Z,98081.81
2022-12-05T05:09:18.749Z,98079.22
2022-12-05T05:11:48.039Z,98079.06
2022-12-05T05:14:18.273Z,98081.53
2022-12-05T05:16:48.537Z,98065.22
2022-12-05T05:19:18.877Z,98073.66
2022-12-05T05:21:48.667Z,98067.81
2022-12-05T05:24:21.882Z,98072.84
2022-12-05T05:26:56.887Z,98079.78
2022-12-05T05:29:26.069Z,98079.63
2022-12-05T05:31:55.468Z,98090.22
2022-12-05T05:34:26.712Z,98087.53
2022-12-05T05:36:56.256Z,98089.16
2022-12-05T05:39:29.542Z,98097.56
2022-12-05T05:41:59.059Z,98095.81
2022-12-05T05:44:28.428Z,98107.91
2022-12-05T05:46:57.497Z,98110.34
2022-12-05T05:49:27.623Z,98107.78
2022-12-05T05:51:57.593Z,98099.22
2022-12-05T05:54:28.547Z,98097.28
2022-12-05T05:56:58.582Z,98100.69
2022-12-05T05:59:28.220Z,98102.44
2022-12-05T06:01:58.223Z,98100.69
2022-12-05T06:04:28.348Z,98103.28
2022-12-05T06:06:58.277Z,98096.34
2022-12-05T06:09:28.698Z,98105.84
2022-12-05T06:11:58.560Z,98105.69
2022-12-05T06:14:27.860Z,98116.19
2022-12-05T06:16:57.932Z,98118.88
2022-12-05T06:19:27.134Z,98129.38
2022-12-05T06:21:57.105Z,98120.69
2022-12-05T06:24:28.011Z,98126.63
2022-12-05T06:26:58.032Z,98123.13
2022-12-05T06:29:31.163Z,98116.03
2022-12-05T06:32:02.823Z,98117.81
2022-12-05T06:34:33.103Z,98124.75
2022-12-05T06:37:03.468Z,98127.47
2022-12-05T06:39:35.094Z,98138.59
2022-12-05T06:42:05.507Z,98137.66
2022-12-05T06:44:36.020Z,98140.25
2022-12-05T06:47:04.997Z,98143.78
2022-12-05T06:49:37.791Z,98142.84
2022-12-05T06:52:07.676Z,98145.41
2022-12-05T06:54:39.420Z,98150.56
2022-12-05T06:57:09.729Z,98154.78
2022-12-05T06:59:39.610Z,98149.47
2022-12-05T07:02:08.686Z,98155.59
2022-12-05T07:04:38.227Z,98158.31
2022-12-05T07:07:06.969Z,98159.16
2022-12-05T07:09:53.941Z,98158.06
2022-12-05T07:12:23.272Z,98162.00
2022-12-05T07:14:52.303Z,98169.75
2022-12-05T07:17:22.726Z,98174.75
2022-12-05T07:19:52.342Z,98169.59
2022-12-05T07:22:24.118Z,98172.72
2022-12-05T07:24:55.068Z,98170.13
2022-12-05T07:27:27.640Z,98172.03
2022-12-05T07:29:58.074Z,98170.94
2022-12-05T07:32:27.142Z,98178.56
2022-12-05T07:34:56.932Z,98175.16
2022-12-05T07:37:26.212Z,98181.16
2022-12-05T07:39:57.074Z,98187.28
2022-12-05T07:42:26.699Z,98189.03
2022-12-05T07:44:56.034Z,98192.44
2022-12-05T07:47:25.075Z,98194.91
2022-12-05T07:49:55.254Z,98190.69
2022-12-05T07:52:24.193Z,98183.75
2022-12-05T07:54:55.191Z,98188.91
2022-12-05T07:57:25.291Z,98187.94
2022-12-05T07:59:54.957Z,98195.56
2022-12-05T08:02:24.784Z,98190.69
2022-12-05T08:04:53.262Z,98203.59
2022-12-05T08:07:22.736Z,98206.84
2022-12-05T08:09:52.059Z,98210.25
2022-12-05T08:12:23.639Z,98211.88
2022-12-05T08:14:52.729Z,98211.06
2022-12-05T08:17:22.934Z,98202.22
2022-12-05T08:19:52.359Z,98203.72
2022-12-05T08:22:21.782Z,98203.84
2022-12-05T08:24:56.241Z,98209.69
2022-12-05T08:27:27.276Z,98208.75
2022-12-05T08:29:57.575Z,98213.09
2022-12-05T08:32:28.458Z,98217.19
2022-12-05T08:34:57.954Z,98219.63
2022-12-05T08:37:26.667Z,98215.28
2022-12-05T08:39:56.328Z,98222.88
2022-12-05T08:42:27.286Z,98222.75
2022-12-05T08:44:57.922Z,98227.91
2022-12-05T08:47:27.863Z,98226.00
2022-12-05T08:49:58.011Z,98231.88
2022-12-05T08:52:27.916Z,98224.78
2022-12-05T08:54:57.650Z,98236.75
2022-12-05T08:57:29.665Z,98247.09
2022-12-05T09:00:00.047Z,98250.34
2022-12-05T09:02:29.729Z,98246.81
2022-12-05T09:05:13.276Z,98255.09
2022-12-05T09:07:48.717Z,98256.59
2022-12-05T09:10:18.075Z,98257.41
2022-12-05T09:12:50.565Z,98254.72
2022-12-05T09:15:19.941Z,98259.72
2022-12-05T09:17:48.885Z,98267.34
2022-12-05T09:20:18.394Z,98269.66
2022-12-05T09:22:46.797Z,98273.06
2022-12-05T09:25:16.273Z,98278.22
2022-12-05T09:27:47.921Z,98283.25
2022-12-05T09:30:23.908Z,98282.19
2022-12-05T09:33:23.865Z,98288.41
2022-12-05T09:35:53.406Z,98294.41
2022-12-05T09:38:22.131Z,98293.34
2022-12-05T09:41:06.047Z,98295.78
2022-12-05T09:43:51.106Z,98293.72
2022-12-05T09:46:36.585Z,98291.03
2022-12-05T09:49:09.673Z,98296.03
2022-12-05T09:51:50.870Z,98297.69
2022-12-05T09:54:26.802Z,98292.22
2022-12-05T09:56:58.703Z,98293.03
2022-12-05T09:59:30.102Z,98297.13
2022-12-05T10:02:15.782Z,98285.84
2022-12-05T10:05:00.893Z,98284.88
2022-12-05T10:07:38.494Z,98284.19
2022-12-05T10:10:42.632Z,98288.28
2022-12-05T10:13:41.837Z,98276.16
2022-12-05T10:16:18.963Z,98277.94
2022-12-05T10:18:54.925Z,98274.25
2022-12-05T10:21:32.233Z,98274.25
2022-12-05T10:24:03.906Z,98271.38
2022-12-05T10:26:39.114Z,98275.63
2022-12-05T10:29:25.450Z,98283.09
2022-12-05T10:32:07.207Z,98282.13
2022-12-05T10:34:41.783Z,98285.41
2022-12-05T10:37:17.656Z,98284.59
2022-12-05T10:39:47.489Z,98285.41
2022-12-05T10:42:21.686Z,98287.03
2022-12-05T10:44:58.910Z,98290.28
2022-12-05T10:47:29.571Z,98290.00
2022-12-05T10:50:05.828Z,98290.53
2022-12-05T10:52:36.401Z,98283.31
2022-12-05T10:55:10.298Z,98286.72
2022-12-05T10:57:40.860Z,98278.97
2022-12-05T11:00:15.728Z,98278.84
2022-12-05T11:02:49.465Z,98279.34
2022-12-05T11:05:31.051Z,98266.28
2022-12-05T11:08:01.709Z,98259.19
2022-12-05T11:10:37.887Z,98256.47
2022-12-05T11:13:18.998Z,98252.94
2022-12-05T11:15:55.067Z,98245.00
2022-12-05T11:18:32.791Z,98248.41
2022-12-05T11:21:13.713Z,98247.31
2022-12-05T11:23:43.743Z,98239.13
2022-12-05T11:26:35.647Z,98250.97
2022-12-05T11:29:06.068Z,98245.13
2022-12-05T11:31:35.827Z,98250.84
2022-12-05T11:34:21.066Z,98236.13
2022-12-05T11:36:55.899Z,98240.59
2022-12-05T11:39:26.077Z,98243.97
2022-12-05T11:42:45.169Z,98243.00
2022-12-05T11:45:33.968Z,98251.47
2022-12-05T11:48:31.621Z,98255.53
2022-12-05T11:51:26.927Z,98263.16
2022-12-05T11:58:17.372Z,98254.97
2022-12-05T12:01:05.863Z,98260.97
2022-12-05T12:04:07.799Z,98246.78
2022-12-05T12:07:01.253Z,98246.09
2022-12-05T12:09:44.894Z,98245.13
2022-12-05T12:12:28.250Z,98244.19
2022-12-05T12:15:21.543Z,98240.78
2022-12-05T12:18:03.142Z,98244.84
2022-12-05T12:20:53.922Z,98246.78
2022-12-05T12:23:44.666Z,98249.19
2022-12-05T12:26:23.203Z,98251.66
2022-12-05T12:29:10.892Z,98247.13
2022-12-05T12:32:04.610Z,98240.88
2022-12-05T12:35:00.519Z,98239.91
2022-12-05T12:37:43.532Z,98241.81
2022-12-05T12:40:23.677Z,98235.72
2022-12-05T12:43:17.606Z,98246.78
2022-12-05T12:46:43.012Z,98240.13
2022-12-05T12:49:37.366Z,98249.66
2022-12-05T12:52:14.694Z,98244.06
2022-12-05T12:55:04.369Z,98237.25
2022-12-05T12:57:56.354Z,98242.72
2022-12-05T13:00:39.047Z,98243.72
2022-12-05T13:03:17.558Z,98236.88
2022-12-05T13:05:55.263Z,98246.13
2022-12-05T13:08:32.591Z,98241.91
2022-12-05T13:11:06.337Z,98245.19
2022-12-05T13:13:42.206Z,98241.13
2022-12-05T13:16:24.802Z,98245.31
2022-12-05T13:18:56.062Z,98236.06
2022-12-05T13:21:25.993Z,98229.72
2022-12-05T13:24:03.489Z,98237.03
2022-12-05T13:26:36.100Z,98233.06
2022-12-05T13:29:07.309Z,98233.34
2022-12-05T13:31:40.001Z,98238.66
2022-12-05T13:34:48.723Z,98238.41
2022-12-05T13:37:42.283Z,98238.72
2022-12-05T13:40:47.795Z,98243.88
2022-12-05T13:43:21.101Z,98250.41
2022-12-05T13:46:08.209Z,98255.97
2022-12-05T13:48:42.516Z,98259.06
2022-12-05T13:51:22.198Z,98254.44
2022-12-05T13:54:01.821Z,98264.50
2022-12-05T13:56:51.960Z,98261.63
2022-12-05T14:00:04.984Z,98258.59
2022-12-05T14:02:56.391Z,98260.91
2022-12-05T14:05:58.282Z,98265.00
2022-12-05T14:08:57.522Z,98260.31
2022-12-05T14:11:26.539Z,98267.13
2022-12-05T14:14:00.734Z,98266.03
2022-12-05T14:16:46.647Z,98267.00
2022-12-05T14:20:01.617Z,98268.34
2022-12-05T14:23:17.734Z,98271.59
2022-12-05T14:26:31.665Z,98275.81
2022-12-05T14:29:39.713Z,98275.81
2022-12-05T14:32:25.329Z,98275.53
2022-12-05T14:35:05.943Z,98271.00
2022-12-05T14:37:39.113Z,98276.06
2022-12-05T14:40:25.475Z,98272.66
2022-12-05T14:42:59.250Z,98266.53
2022-12-05T14:45:40.440Z,98275.91
2022-12-05T14:48:32.338Z,98277.00
2022-12-05T14:51:24.784Z,98275.25
2022-12-05T14:53:58.138Z,98287.91
2022-12-05T14:56:29.487Z,98282.72
2022-12-05T14:59:07.886Z,98280.13
2022-12-05T15:01:46.647Z,98280.00
2022-12-05T15:04:24.703Z,98280.13
2022-12-05T15:06:59.351Z,98278.50
2022-12-05T15:09:45.565Z,98287.09
2022-12-05T15:12:21.366Z,98280.13
2022-12-05T15:15:02.613Z,98286.13
2022-12-05T15:17:40.792Z,98281.47
2022-12-05T15:20:18.221Z,98291.03
2022-12-05T15:22:47.088Z,98286.66
2022-12-05T15:25:34.413Z,98292.78
2022-12-05T15:28:19.132Z,98290.06
2022-12-05T15:30:57.835Z,98292.78
2022-12-05T15:33:28.919Z,98291.03
2022-12-05T15:36:00.489Z,98291.03
2022-12-05T15:38:36.554Z,98286.00
2022-12-05T15:41:17.415Z,98290.19
2022-12-05T15:43:58.387Z,98290.38
2022-12-05T15:46:29.537Z,98297.97
2022-12-05T15:49:01.274Z,98297.03
2022-12-05T15:51:38.582Z,98291.03
2022-12-05T15:54:16.142Z,98300.56
2022-12-05T15:56:54.890Z,98303.16
2022-12-05T15:59:30.278Z,98300.56
2022-12-05T16:02:07.013Z,98297.16
2022-12-05T16:04:43.551Z,98291.84
2022-12-05T16:07:15.997Z,98299.63
2022-12-05T16:09:47.508Z,98296.06
2022-12-05T16:12:28.121Z,98296.06
2022-12-05T16:15:04.077Z,98297.97
2022-12-05T16:17:43.955Z,98293.78
2022-12-05T16:20:24.572Z,98298.78
2022-12-05T16:22:56.886Z,98305.75
2022-12-05T16:25:28.676Z,98305.75
2022-12-05T16:28:02.415Z,98308.63
2022-12-05T16:30:33.503Z,98305.09
2022-12-05T16:33:08.215Z,98312.84
2022-12-05T16:35:41.738Z,98315.44
2022-12-05T16:38:24.824Z,98315.28
2022-12-05T16:41:00.931Z,98321.28
2022-12-05T16:43:47.566Z,98321.28
2022-12-05T16:46:46.965Z,98318.69
2022-12-05T16:49:26.786Z,98312.69
2022-12-05T16:52:00.719Z,98322.09
2022-12-05T16:54:30.113Z,98323.75
2022-12-05T16:57:01.353Z,98321.16
2022-12-05T16:59:37.261Z,98328.09
2022-12-05T17:02:13.373Z,98324.69
2022-12-05T17:04:43.023Z,98328.09
2022-12-05T17:07:12.005Z,98321.81
2022-12-05T17:09:40.458Z,98332.03
2022-12-05T17:12:17.600Z,98326.03
2022-12-05T17:14:47.910Z,98321.81
2022-12-05T17:17:18.346Z,98321.81
2022-12-05T17:19:47.587Z,98326.19
2022-12-05T17:22:17.996Z,98325.38
2022-12-05T17:24:46.639Z,98322.63
2022-12-05T17:27:16.537Z,98327.16
2022-12-05T17:29:45.667Z,98328.75
2022-12-05T17:32:17.443Z,98330.56
2022-12-05T17:34:46.843Z,98335.59
2022-12-05T17:37:16.405Z,98333.94
2022-12-05T17:39:45.958Z,98334.78
2022-12-05T17:42:16.281Z,98334.63
2022-12-05T17:44:46.037Z,98327.81
2022-12-05T17:47:17.059Z,98334.63
2022-12-05T17:49:47.243Z,98339.00
2022-12-05T17:52:22.305Z,98338.84
2022-12-05T17:54:53.727Z,98342.25
2022-12-05T17:57:23.250Z,98344.03
2022-12-05T17:59:52.781Z,98342.25
2022-12-05T18:02:24.426Z,98346.59
2022-12-05T18:04:54.069Z,98351.66
2022-12-05T18:07:23.735Z,98348.25
2022-12-05T18:09:52.723Z,98343.06
2022-12-05T18:12:23.034Z,98351.53
2022-12-05T18:14:52.415Z,98343.75
2022-12-05T18:17:23.437Z,98348.94
2022-12-05T18:19:53.032Z,98351.53
2022-12-05T18:22:22.653Z,98347.97
2022-12-05T18:24:51.869Z,98354.78
2022-12-05T18:27:22.396Z,98358.31
2022-12-05T18:29:52.364Z,98359.16
2022-12-05T18:32:24.140Z,98355.72
2022-12-05T18:34:52.942Z,98357.06
2022-12-05T18:37:24.402Z,98359.00
2022-12-05T18:39:53.961Z,98363.22
2022-12-05T18:42:23.519Z,98361.59
2022-12-05T18:44:53.521Z,98360.78
2022-12-05T18:47:24.653Z,98353.97
2022-12-05T18:49:53.133Z,98354.78
2022-12-05T18:52:22.183Z,98358.19
2022-12-05T18:55:09.579Z,98358.03
2022-12-05T18:57:41.021Z,98361.59
2022-12-05T19:00:13.526Z,98362.69
2022-12-05T19:02:44.840Z,98364.19
2022-12-05T19:05:14.971Z,98366.91
2022-12-05T19:07:46.527Z,98366.91
2022-12-05T19:10:17.604Z,98371.28
2022-12-05T19:12:46.795Z,98376.63
2022-12-05T19:15:17.439Z,98374.69
2022-12-05T19:17:49.780Z,98368.84
2022-12-05T19:20:19.386Z,98377.44
2022-12-05T19:22:48.845Z,98373.03
2022-12-05T19:25:18.425Z,98378.09
2022-12-05T19:27:49.118Z,98378.09
2022-12-05T19:30:18.656Z,98375.50
2022-12-05T19:32:49.948Z,98383.28
2022-12-05T19:35:19.134Z,98384.22
2022-12-05T19:37:48.895Z,98381.66
2022-12-05T19:40:19.756Z,98383.56
2022-12-05T19:42:50.528Z,98381.09
2022-12-05T19:45:20.547Z,98386.16
2022-12-05T19:47:52.065Z,98388.59
2022-12-05T19:50:21.715Z,98389.56
2022-12-05T19:52:52.333Z,98401.72
2022-12-05T19:55:22.490Z,98401.72
2022-12-05T19:57:51.953Z,98401.72
2022-12-05T20:00:22.917Z,98400.66
2022-12-05T20:02:53.781Z,98394.81
2022-12-05T20:05:23.189Z,98383.47
2022-12-05T20:07:54.711Z,98385.09
2022-12-05T20:10:25.246Z,98380.59
2022-12-05T20:12:55.567Z,98378.28
2022-12-05T20:15:24.378Z,98374.75
2022-12-05T20:17:55.850Z,98376.38
2022-12-05T20:20:26.408Z,98376.38
2022-12-05T20:22:55.785Z,98374.75
2022-12-05T20:25:24.634Z,98372.03
2022-12-05T20:27:54.313Z,98378.97
2022-12-05T20:30:23.211Z,98391.94
2022-12-05T20:32:53.910Z,98396.28
2022-12-05T20:35:24.524Z,98396.28
2022-12-05T20:37:53.622Z,98399.69
2022-12-05T20:40:23.088Z,98398.88
2022-12-05T20:42:51.673Z,98398.72
2022-12-05T20:45:20.565Z,98403.91
2022-12-05T20:47:51.336Z,98401.47
2022-12-05T20:50:23.428Z,98397.09
2022-12-05T20:52:52.843Z,98401.59
2022-12-05T20:55:22.704Z,98394.66
2022-12-05T20:57:53.038Z,98399.00
2022-12-05T21:00:24.508Z,98392.06
2022-12-05T21:02:53.933Z,98385.94
2022-12-05T21:05:25.458Z,98388.66
2022-12-05T21:07:55.547Z,98391.09
2022-12-05T21:10:24.530Z,98381.69
2022-12-05T21:12:54.035Z,98383.47
2022-12-05T21:15:23.990Z,98387.03
2022-12-05T21:17:52.606Z,98381.84
2022-12-05T21:20:23.681Z,98381.84
2022-12-05T21:22:53.050Z,98392.22
2022-12-05T21:25:21.521Z,98383.75
2022-12-05T21:27:51.448Z,98380.22
2022-12-05T21:30:21.690Z,98385.38
2022-12-05T21:32:50.892Z,98377.75
2022-12-05T21:35:20.579Z,98370.13
2022-12-05T21:37:51.887Z,98380.50
2022-12-05T21:40:21.989Z,98375.31
2022-12-05T21:42:51.931Z,98370.97
2022-12-05T21:45:20.419Z,98373.56
2022-12-05T21:47:51.234Z,98373.38
2022-12-05T21:50:20.322Z,98376.13
2022-12-05T21:52:50.630Z,98373.69
2022-12-05T21:55:20.987Z,98368.50
2022-12-05T21:57:50.437Z,98372.84
2022-12-05T22:00:21.081Z,98371.91
2022-12-05T22:02:51.340Z,98371.09
2022-12-05T22:05:20.904Z,98371.22
2022-12-05T22:07:50.918Z,98371.22
2022-12-05T22:10:19.957Z,98371.22
2022-12-05T22:12:49.484Z,98363.31
2022-12-05T22:15:18.756Z,98369.44
2022-12-05T22:17:47.468Z,98370.44
2022-12-05T22:20:18.214Z,98377.22
2022-12-05T22:22:48.946Z,98378.84
2022-12-05T22:25:18.929Z,98386.50
2022-12-05T22:27:48.408Z,98389.22
2022-12-05T22:30:18.896Z,98391.16
2022-12-05T22:32:47.726Z,98391.16
2022-12-05T22:35:17.159Z,98393.22
2022-12-05T22:37:47.087Z,98396.59
2022-12-05T22:40:18.337Z,98394.69
2022-12-05T22:42:47.841Z,98401.09
2022-12-05T22:45:17.670Z,98393.22
2022-12-05T22:47:46.598Z,98396.47
2022-12-05T22:50:17.037Z,98393.03
2022-12-05T22:52:46.472Z,98391.41
2022-12-05T22:55:18.506Z,98390.63
2022-12-05T22:57:48.498Z,98386.50
2022-12-05T23:00:18.964Z,98389.78
2022-12-05T23:02:47.491Z,98389.78
2022-12-05T23:05:18.408Z,98387.34
2022-12-05T23:07:49.517Z,98383.25
2022-12-05T23:10:21.521Z,98382.31
2022-12-05T23:12:51.016Z,98382.44
2022-12-05T23:15:20.764Z,98383.25
2022-12-05T23:17:50.148Z,98374.00
2022-12-05T23:20:21.183Z,98376.44
2022-12-05T23:22:51.064Z,98374.66
2022-12-05T23:25:21.503Z,98367.03
2022-12-05T23:27:50.808Z,98366.09
2022-12-05T23:30:20.563Z,98359.00
2022-12-05T23:32:49.382Z,98368.38
2022-12-05T23:35:19.002Z,98364.19
2022-12-05T23:37:48.707Z,98367.44
2022-12-05T23:40:18.033Z,98367.56
2022-12-05T23:42:48.399Z,98351.50
2022-12-05T23:45:17.548Z,98366.38
2022-12-05T23:47:46.907Z,98366.25
2022-12-05T23:50:17.817Z,98364.72
2022-12-05T23:52:46.829Z,98365.72
2022-12-05T23:55:16.103Z,98367.47
2022-12-05T23:57:45.450Z,98374.25
